This is the latest recevied weather packets stored in our database for station/object NW5W-12. If no packets are shown the sender has not sent any weather packets the latest 10 day(s).
| Time | Temp. | Humidity | Pressure | Rain* | Wind** | Luminosity | Snow |
|---|---|---|---|---|---|---|---|
| 1778072742 | 1.11° C | 81% | 1016.5 hPa | 3.56 mm | - | - | - |
| 1778072443 | 1.11° C | 82% | 1016.5 hPa | 3.56 mm | - | - | - |
| 1778072143 | 1.11° C | 82% | 1016.4 hPa | 3.56 mm | - | - | - |
| 1778071242 | 1.11° C | 82% | 1016.2 hPa | 3.56 mm | - | - | - |
| 1778070942 | 1.11° C | 82% | 1016.2 hPa | 3.56 mm | - | - | - |
| 1778070643 | 1.11° C | 82% | 1016.1 hPa | 3.56 mm | - | - | - |
| 1778070342 | 1.11° C | 82% | 1016.1 hPa | 3.56 mm | - | - | - |
| 1778070042 | 1.67° C | 81% | 1016.1 hPa | 3.56 mm | - | - | - |
| 1778069742 | 1.67° C | 81% | 1016 hPa | 3.56 mm | - | - | - |
| 1778069442 | 1.67° C | 81% | 1016.2 hPa | 3.56 mm | - | - | - |
| 1778069142 | 1.67° C | 82% | 1016.2 hPa | 3.56 mm | - | - | - |
| 1778068842 | 1.67° C | 82% | 1016.1 hPa | 3.56 mm | - | - | - |
| 1778068542 | 2.22° C | 81% | 1016 hPa | 3.56 mm | - | - | - |
| 1778068242 | 3.33° C | 79% | 1016 hPa | 3.56 mm | - | - | - |
| 1778067942 | 2.78° C | 80% | 1015.8 hPa | 3.56 mm | - | - | - |
| 1778067642 | 2.78° C | 83% | 1015.9 hPa | 3.56 mm | - | - | - |
| 1778067342 | 2.78° C | 86% | 1016 hPa | 3.56 mm | - | - | - |
| 1778067043 | 2.78° C | 85% | 1016 hPa | 3.56 mm | - | - | - |
| 1778066742 | 2.78° C | 86% | 1015.9 hPa | 3.56 mm | - | - | - |
| 1778066442 | 2.78° C | 87% | 1015.9 hPa | 3.56 mm | - | - | - |
| 1778066142 | 2.78° C | 87% | 1015.8 hPa | 3.56 mm | - | - | - |
| 1778065843 | 2.78° C | 88% | 1015.7 hPa | 3.56 mm | - | - | - |
| 1778065542 | 2.78° C | 89% | 1015.7 hPa | 3.56 mm | - | - | - |
| 1778065242 | 2.22° C | 90% | 1015.6 hPa | 3.56 mm | - | - | - |
| 1778064942 | 2.22° C | 92% | 1015.5 hPa | 3.56 mm | - | - | - |
* Rain since midnight (hover to see other rain measurements)
** Current wind speed in m/s (hover to see current wind gust speed)